Time;durP1;ratioP1;P1;durP2;ratioP2;P2;SDS_P1;SDS_P2;PMS_P1;PMS_P2;Temp;Humidity;BMP_temperature;BMP_pressure;BME280_temperature;BME280_humidity;BME280_pressure;Samples;Min_cycle;Max_cycle;Signal;HPM_P1;HPM_P2
2022/02/28 00:00:47;;;;;;;6.80;3.65;;;;;;;6.51;39.36;101057.00;4466065;32;33396;-84
2022/02/28 00:03:15;;;;;;;;;;;;;;;6.65;39.61;101054.25;4459591;32;34109;-85
2022/02/28 00:05:43;;;;;;;7.22;3.90;;;;;;;6.72;38.88;101055.06;4459449;32;34431;-84
2022/02/28 00:08:10;;;;;;;12.05;3.97;;;;;;;6.93;38.43;101049.63;4471547;32;33802;-84
2022/02/28 00:10:38;;;;;;;6.70;3.75;;;;;;;6.95;38.17;101047.88;4459329;32;32333;-84
2022/02/28 00:13:06;;;;;;;10.98;4.20;;;;;;;6.25;39.63;101046.66;4459153;32;33692;-86
2022/02/28 00:15:33;;;;;;;7.80;3.85;;;;;;;6.74;39.31;101037.53;4459268;32;33587;-85
2022/02/28 00:18:01;;;;;;;7.28;3.42;;;;;;;6.69;39.42;101029.72;4473320;31;33538;-85
2022/02/28 00:20:30;;;;;;;8.52;3.37;;;;;;;6.82;39.18;101031.34;4459601;32;34584;-86
2022/02/28 00:22:58;;;;;;;10.75;3.95;;;;;;;7.16;38.63;101026.66;4459318;32;33639;-85
2022/02/28 00:25:26;;;;;;;9.23;4.12;;;;;;;7.31;40.22;101030.91;4459255;32;34261;-86
2022/02/28 00:27:54;;;;;;;8.70;4.07;;;;;;;6.77;41.31;101027.03;4459261;32;34509;-85
2022/02/28 00:30:22;;;;;;;8.63;4.05;;;;;;;6.71;41.61;101024.47;4446274;32;32690;-85
2022/02/28 00:32:50;;;;;;;7.05;3.67;;;;;;;6.80;41.30;101025.25;4459406;32;33534;-85
2022/02/28 00:35:17;;;;;;;8.25;4.10;;;;;;;7.09;40.68;101024.13;4446356;32;33931;-85
2022/02/28 00:37:45;;;;;;;8.35;4.45;;;;;;;6.80;41.44;101027.03;4446276;32;32953;-86
2022/02/28 00:40:13;;;;;;;9.45;4.68;;;;;;;6.54;41.89;101029.84;4458749;32;33009;-85
2022/02/28 00:42:40;;;;;;;9.98;4.37;;;;;;;6.72;41.74;101024.44;4471746;32;32832;-85
2022/02/28 00:45:08;;;;;;;9.20;4.05;;;;;;;6.44;42.64;101033.41;4472015;32;33623;-84
2022/02/28 00:47:39;;;;;;;5.95;3.50;;;;;;;6.33;43.11;101025.62;4450818;31;33920;-85
2022/02/28 00:50:09;;;;;;;6.55;3.67;;;;;;;6.40;42.22;101025.56;4486693;31;33247;-84
2022/02/28 00:52:38;;;;;;;9.77;4.12;;;;;;;6.54;41.98;101024.59;4487999;31;33898;-84
2022/02/28 00:55:07;;;;;;;12.55;4.72;;;;;;;6.67;42.21;101021.00;4474494;31;33830;-85
2022/02/28 00:57:34;;;;;;;5.62;3.62;;;;;;;6.54;42.52;101027.22;4448905;32;33140;-85
2022/02/28 01:00:08;;;;;;;7.68;4.22;;;;;;;6.46;42.57;101021.16;4471917;32;33118;-85
2022/02/28 01:02:36;;;;;;;8.65;4.15;;;;;;;6.12;42.68;101027.50;4471793;32;34092;-86
2022/02/28 01:05:05;;;;;;;8.05;4.15;;;;;;;6.19;42.84;101022.22;4445719;32;33456;-85
2022/02/28 01:07:33;;;;;;;6.35;3.80;;;;;;;5.95;42.46;101018.88;4471791;32;33558;-85
2022/02/28 01:10:02;;;;;;;10.95;3.30;;;;;;;6.44;39.58;101022.91;4458720;32;33375;-83
2022/02/28 01:12:30;;;;;;;9.32;4.12;;;;;;;6.57;40.31;101009.69;4474829;31;33845;-83
2022/02/28 01:14:57;;;;;;;7.68;3.50;;;;;;;6.13;41.44;101018.75;4464276;32;33482;-83
2022/02/28 01:17:25;;;;;;;8.63;4.07;;;;;;;6.37;40.36;101022.97;4471736;32;34612;-82
2022/02/28 01:19:53;;;;;;;7.70;3.87;;;;;;;7.09;41.11;101018.88;4467144;32;32716;-82
2022/02/28 01:22:20;;;;;;;9.80;3.80;;;;;;;6.44;42.34;101022.91;4484615;32;33629;-82
2022/02/28 01:24:50;;;;;;;7.72;3.65;;;;;;;6.22;42.91;101011.69;4484716;32;33922;-84
2022/02/28 01:27:18;;;;;;;9.80;3.62;;;;;;;6.17;42.29;101011.72;4462959;32;32690;-84
2022/02/28 01:29:46;;;;;;;8.23;4.93;;;;;;;6.03;42.19;101016.19;4471572;32;34297;-84
2022/02/28 01:32:14;;;;;;;7.68;3.75;;;;;;;6.39;41.08;101010.69;4445939;32;32379;-84
2022/02/28 01:34:42;;;;;;;5.78;2.85;;;;;;;5.94;41.22;101003.16;4458716;32;33548;-84
2022/02/28 01:37:09;;;;;;;8.25;3.55;;;;;;;5.97;40.54;101005.72;4458504;32;33001;-84
2022/02/28 01:39:40;;;;;;;5.75;2.83;;;;;;;6.32;40.34;101002.91;4467016;32;32998;-84
2022/02/28 01:42:08;;;;;;;7.62;3.75;;;;;;;6.55;39.71;101005.34;4458551;32;32872;-84
2022/02/28 01:44:35;;;;;;;7.05;3.22;;;;;;;6.96;39.07;101002.34;4458529;32;33779;-84
2022/02/28 01:47:04;;;;;;;5.97;3.55;;;;;;;6.59;40.35;100997.41;4445717;32;33023;-84
2022/02/28 01:49:31;;;;;;;7.53;3.37;;;;;;;6.61;39.93;100989.56;4445324;32;33016;-84
2022/02/28 01:51:59;;;;;;;5.47;3.35;;;;;;;6.58;39.99;100994.81;4464498;32;32781;-84
2022/02/28 01:54:27;;;;;;;8.32;3.33;;;;;;;6.46;40.33;100985.31;4471577;32;34107;-84
2022/02/28 01:56:55;;;;;;;7.43;3.05;;;;;;;6.49;40.18;100989.66;4473805;31;32928;-84
2022/02/28 01:59:23;;;;;;;6.70;3.87;;;;;;;6.67;40.00;100987.75;4473447;31;34112;-83
2022/02/28 02:02:22;;;;;;;5.45;3.50;;;;;;;7.04;38.73;100981.28;4476496;31;33979;-84
2022/02/28 02:04:51;;;;;;;8.25;2.85;;;;;;;6.62;40.08;100986.91;4475038;32;33778;-84
2022/02/28 02:07:18;;;;;;;5.00;3.08;;;;;;;6.73;39.89;100981.56;4476800;32;34140;-84
2022/02/28 02:09:46;;;;;;;5.43;3.60;;;;;;;6.67;39.41;100973.75;4450372;32;33547;-84
2022/02/28 02:12:14;;;;;;;5.05;2.80;;;;;;;7.12;38.91;100975.06;4463510;32;33504;-84
2022/02/28 02:14:42;;;;;;;5.78;2.97;;;;;;;7.12;39.79;100977.69;4463393;32;33738;-85
2022/02/28 02:17:09;;;;;;;8.95;3.90;;;;;;;6.75;39.64;100978.94;4476130;32;34027;-83
2022/02/28 02:19:37;;;;;;;7.78;3.08;;;;;;;6.73;39.39;100972.81;4463419;32;32882;-83
2022/02/28 02:22:07;;;;;;;7.37;3.12;;;;;;;6.60;40.23;100969.47;4463256;32;33238;-83
2022/02/28 02:24:35;;;;;;;5.05;3.20;;;;;;;6.78;39.07;100966.63;4476244;32;33844;-83
2022/02/28 02:27:03;;;;;;;4.97;3.00;;;;;;;6.76;39.71;100962.31;4463138;32;33713;-83
2022/02/28 02:29:37;;;;;;;5.22;2.58;;;;;;;6.81;39.36;100956.13;4476026;32;34141;-83
2022/02/28 02:32:10;;;;;;;4.65;3.33;;;;;;;6.53;39.98;100952.00;4450822;31;33566;-83
2022/02/28 02:34:37;;;;;;;;;;;;;;;6.52;40.10;100953.75;4464234;32;34521;-83
2022/02/28 02:37:05;;;;;;;6.97;2.85;;;;;;;6.82;38.11;100952.59;4450022;32;32993;-83
2022/02/28 02:39:38;;;;;;;7.57;2.87;;;;;;;6.49;39.20;100952.91;4462862;32;33268;-83
2022/02/28 02:42:06;;;;;;;4.82;2.78;;;;;;;6.74;38.54;100951.81;4475709;32;33908;-83
2022/02/28 02:44:35;;;;;;;6.45;3.22;;;;;;;7.02;38.15;100952.37;4476095;32;33906;-83
2022/02/28 02:47:04;;;;;;;9.65;3.08;;;;;;;6.88;39.30;100949.03;4475670;31;35114;-83
2022/02/28 02:49:35;;;;;;;7.90;2.53;;;;;;;6.86;39.74;100946.44;4470591;32;32702;-85
2022/02/28 02:52:03;;;;;;;4.00;2.50;;;;;;;6.56;40.18;100939.75;4478665;31;32610;-85
2022/02/28 02:54:32;;;;;;;6.37;2.85;;;;;;;7.06;39.19;100940.97;4469781;31;33867;-85
2022/02/28 02:56:59;;;;;;;5.15;3.15;;;;;;;6.85;39.48;100941.22;4455479;32;32350;-85
2022/02/28 02:59:27;;;;;;;5.03;2.85;;;;;;;6.75;39.33;100940.44;4476398;32;33397;-85
2022/02/28 03:01:54;;;;;;;6.65;2.85;;;;;;;6.47;39.96;100934.56;4453366;32;33307;-84
2022/02/28 03:04:23;;;;;;;7.60;3.92;;;;;;;6.68;39.66;100938.75;4463012;32;34794;-84
2022/02/28 03:06:51;;;;;;;5.32;2.75;;;;;;;6.65;40.17;100933.53;4462384;32;33822;-84
2022/02/28 03:09:20;;;;;;;7.03;2.95;;;;;;;6.61;40.09;100935.31;4475220;32;33835;-84
2022/02/28 03:11:48;;;;;;;8.50;3.40;;;;;;;6.49;39.01;100931.91;4474632;32;34407;-83
2022/02/28 03:14:16;;;;;;;11.48;3.05;;;;;;;7.01;38.15;100931.41;4459429;32;33231;-84
2022/02/28 03:16:44;;;;;;;7.05;3.30;;;;;;;6.66;38.75;100936.13;4471079;32;34658;-83
2022/02/28 03:19:11;;;;;;;3.78;2.30;;;;;;;6.75;38.78;100924.69;4456545;32;33052;-83
2022/02/28 03:21:40;;;;;;;8.50;2.97;;;;;;;6.54;39.74;100930.12;4486913;32;34518;-83
2022/02/28 03:24:08;;;;;;;4.00;2.70;;;;;;;6.59;38.62;100928.31;4485857;32;34716;-83
2022/02/28 03:26:37;;;;;;;7.60;2.90;;;;;;;6.71;38.68;100928.22;4459577;32;33055;-84
2022/02/28 03:29:04;;;;;;;6.55;2.85;;;;;;;6.67;39.02;100921.25;4472045;32;32568;-83
2022/02/28 03:31:32;;;;;;;8.80;2.87;;;;;;;6.69;38.79;100914.22;4462057;31;33292;-83
2022/02/28 03:34:00;;;;;;;6.82;2.95;;;;;;;7.07;37.47;100920.81;4475197;31;33594;-85
2022/02/28 03:36:29;;;;;;;6.25;3.42;;;;;;;7.11;38.19;100922.53;4488892;31;33717;-85
2022/02/28 03:38:58;;;;;;;5.22;2.80;;;;;;;6.82;39.05;100915.84;4462368;31;32332;-85
2022/02/28 03:41:26;;;;;;;10.05;2.97;;;;;;;6.87;39.02;100908.78;4475132;31;33708;-86
2022/02/28 03:48:17;;;;;;;6.47;2.70;;;;;;;7.00;38.05;100914.78;4502730;31;34655;-85
2022/02/28 03:50:46;;;;;;;6.22;2.97;;;;;;;7.05;37.49;100907.72;4449974;32;31928;-83
2022/02/28 03:53:14;;;;;;;5.03;2.95;;;;;;;6.78;38.71;100908.88;4448154;32;34401;-84
2022/02/28 03:55:41;;;;;;;8.02;3.08;;;;;;;6.87;38.90;100898.28;4469625;31;33874;-84
2022/02/28 03:58:09;;;;;;;6.37;3.30;;;;;;;7.06;38.12;100913.84;4477170;32;33912;-83
2022/02/28 04:00:37;;;;;;;5.15;2.72;;;;;;;6.75;38.40;100913.31;4485370;32;33415;-84
2022/02/28 04:03:05;;;;;;;5.75;3.40;;;;;;;6.77;39.00;100901.91;4461347;32;33162;-84
2022/02/28 04:05:35;;;;;;;7.37;3.67;;;;;;;6.98;38.65;100910.41;4459954;32;33140;-83
2022/02/28 04:08:02;;;;;;;8.30;3.70;;;;;;;6.75;39.76;100898.44;4473832;31;34119;-84
2022/02/28 04:10:30;;;;;;;6.10;3.50;;;;;;;6.87;39.47;100908.78;4459318;32;33120;-84
2022/02/28 04:12:58;;;;;;;8.48;3.87;;;;;;;6.68;39.74;100907.25;4472074;32;33479;-84
2022/02/28 04:15:26;;;;;;;8.50;3.65;;;;;;;7.05;38.47;100904.22;4459079;32;33942;-84
2022/02/28 04:17:53;;;;;;;7.12;3.37;;;;;;;7.16;38.31;100905.81;4471971;32;34385;-84
2022/02/28 04:20:21;;;;;;;7.78;3.37;;;;;;;6.70;39.82;100910.75;4479672;32;33021;-83
2022/02/28 04:22:50;;;;;;;6.03;3.28;;;;;;;6.13;41.35;100907.75;4446370;32;32787;-83
2022/02/28 04:25:18;;;;;;;5.15;2.75;;;;;;;6.82;38.40;100910.59;4470998;32;33376;-82
2022/02/28 04:27:46;;;;;;;10.68;4.10;;;;;;;6.82;38.53;100904.47;4472237;32;33688;-83
2022/02/28 04:30:14;;;;;;;6.45;3.30;;;;;;;6.21;39.47;100910.28;4459318;32;34067;-82
2022/02/28 04:32:42;;;;;;;8.65;3.22;;;;;;;6.47;39.24;100905.72;4467359;31;33079;-84
2022/02/28 04:35:10;;;;;;;6.70;2.67;;;;;;;6.54;39.28;100901.25;4462175;32;33173;-83
2022/02/28 04:37:37;;;;;;;7.82;3.60;;;;;;;6.57;38.90;100899.47;4461918;31;34360;-85
2022/02/28 04:40:07;;;;;;;5.03;3.15;;;;;;;6.41;39.17;100904.00;4459381;31;33195;-85
2022/02/28 04:42:34;;;;;;;4.85;2.97;;;;;;;6.22;39.69;100898.91;4462485;32;33355;-84
2022/02/28 04:45:03;;;;;;;4.40;2.62;;;;;;;6.48;39.45;100888.22;4458650;32;32995;-85
2022/02/28 04:47:31;;;;;;;5.60;3.08;;;;;;;6.12;39.70;100900.75;4461567;31;33784;-85
2022/02/28 04:50:00;;;;;;;7.55;3.87;;;;;;;6.13;40.46;100897.25;4461262;32;32360;-85
2022/02/28 04:52:30;;;;;;;5.10;3.33;;;;;;;6.26;39.44;100903.25;4459325;32;33103;-84
2022/02/28 04:54:57;;;;;;;6.53;3.35;;;;;;;6.05;39.65;100905.19;4446224;32;33276;-84
2022/02/28 04:57:25;;;;;;;6.32;2.97;;;;;;;5.31;41.62;100911.69;4445887;32;33795;-84
2022/02/28 04:59:55;;;;;;;6.57;3.12;;;;;;;5.85;40.34;100907.91;4459104;32;32328;-84
2022/02/28 05:02:23;;;;;;;6.43;3.33;;;;;;;5.78;40.24;100910.56;4458924;32;33622;-84
2022/02/28 05:04:51;;;;;;;5.00;2.80;;;;;;;5.86;40.27;100904.41;4446001;32;32908;-84
2022/02/28 05:07:19;;;;;;;6.03;3.25;;;;;;;5.67;40.38;100910.66;4453168;32;33249;-84
2022/02/28 05:09:48;;;;;;;11.35;3.53;;;;;;;5.42;40.84;100916.91;4459281;32;34146;-83
2022/02/28 05:12:15;;;;;;;8.02;3.30;;;;;;;5.39;41.19;100917.78;4445939;32;32398;-83
2022/02/28 05:14:44;;;;;;;7.28;3.20;;;;;;;5.58;40.92;100915.94;4458851;32;33584;-83
2022/02/28 05:17:12;;;;;;;7.55;3.72;;;;;;;5.89;40.38;100929.75;4458944;32;33807;-83
2022/02/28 05:19:40;;;;;;;6.62;3.90;;;;;;;5.90;39.87;100934.97;4445876;32;32919;-83
2022/02/28 05:22:09;;;;;;;8.65;3.05;;;;;;;5.93;39.61;100927.97;4459150;32;33560;-83
2022/02/28 05:24:36;;;;;;;5.65;3.15;;;;;;;5.79;39.70;100928.03;4458858;32;34719;-83
2022/02/28 05:27:05;;;;;;;5.32;3.22;;;;;;;5.96;39.46;100935.84;4471753;32;33910;-83
2022/02/28 05:29:33;;;;;;;5.35;2.55;;;;;;;5.85;39.55;100934.12;4471698;32;33166;-83
2022/02/28 05:32:03;;;;;;;4.47;2.53;;;;;;;5.85;40.30;100942.00;4471223;32;33108;-83
2022/02/28 05:34:31;;;;;;;5.93;2.55;;;;;;;5.95;39.44;100936.72;4470866;32;34087;-82
2022/02/28 05:36:59;;;;;;;4.87;2.60;;;;;;;5.93;39.44;100941.09;4470534;32;33652;-83
2022/02/28 05:39:28;;;;;;;7.35;3.03;;;;;;;5.80;39.73;100948.16;4471986;32;34256;-83
2022/02/28 05:41:56;;;;;;;6.68;2.65;;;;;;;6.00;39.22;100950.66;4471347;32;33286;-83
2022/02/28 05:44:24;;;;;;;6.82;2.75;;;;;;;6.04;39.46;100944.53;4445649;32;33390;-84
2022/02/28 05:46:55;;;;;;;8.10;3.10;;;;;;;6.23;38.66;100945.28;4458909;32;32739;-84
2022/02/28 05:49:23;;;;;;;5.40;3.35;;;;;;;5.99;39.10;100959.44;4458546;32;32365;-84
2022/02/28 05:51:53;;;;;;;7.82;2.60;;;;;;;5.85;39.22;100960.34;4471607;32;34661;-84
2022/02/28 05:54:20;;;;;;;6.95;2.60;;;;;;;5.79;39.00;100960.38;4471476;32;33413;-84
2022/02/28 05:56:48;;;;;;;4.72;2.53;;;;;;;5.35;40.48;100969.28;4471269;32;33908;-84
2022/02/28 05:59:16;;;;;;;6.72;3.05;;;;;;;5.46;40.50;100965.75;4458378;32;31851;-84
2022/02/28 06:01:43;;;;;;;5.05;2.75;;;;;;;5.21;40.46;100965.84;4471469;32;33720;-84
2022/02/28 06:04:12;;;;;;;6.97;2.80;;;;;;;5.24;40.66;100978.94;4458709;32;32751;-83
2022/02/28 06:06:40;;;;;;;7.12;3.05;;;;;;;4.83;41.93;100979.91;4484076;32;34146;-83
2022/02/28 06:09:07;;;;;;;8.60;3.17;;;;;;;5.53;40.55;100972.72;4471084;32;33303;-83
2022/02/28 06:11:35;;;;;;;4.68;2.33;;;;;;;4.99;41.64;100969.44;4457844;32;33142;-83
2022/02/28 06:14:02;;;;;;;5.60;1.83;;;;;;;4.80;42.02;100987.78;4483772;32;33808;-83
2022/02/28 06:16:30;;;;;;;4.95;2.00;;;;;;;4.88;42.99;100996.47;4470581;32;33706;-84
2022/02/28 06:18:57;;;;;;;5.57;2.35;;;;;;;4.54;43.82;100997.38;4471191;32;33754;-83
2022/02/28 06:21:25;;;;;;;5.15;1.48;;;;;;;4.77;43.82;100997.38;4484188;32;33505;-83
2022/02/28 06:23:52;;;;;;;3.03;1.75;;;;;;;4.22;46.77;100989.50;4472655;31;33443;-83
2022/02/28 06:30:42;;;;;;;4.55;1.45;;;;;;;4.37;44.99;100990.41;4487387;31;34370;-83
2022/02/28 06:33:09;;;;;;;2.15;1.48;;;;;;;4.55;44.12;100986.91;4470933;32;33218;-82
2022/02/28 06:35:37;;;;;;;1.80;1.08;;;;;;;4.87;41.90;100980.78;4457711;32;33642;-83
2022/02/28 06:38:09;;;;;;;3.75;1.50;;;;;;;4.44;41.51;100986.03;4470711;32;34620;-84
2022/02/28 06:40:38;;;;;;;2.58;1.70;;;;;;;4.46;41.57;100981.66;4471324;32;34007;-84
2022/02/28 06:43:06;;;;;;;2.75;1.58;;;;;;;4.71;41.56;100974.69;4458097;32;33878;-85
2022/02/28 06:45:34;;;;;;;6.03;1.92;;;;;;;4.00;43.28;100980.78;4444600;32;33210;-84
2022/02/28 06:48:01;;;;;;;2.75;1.60;;;;;;;4.16;43.68;100985.13;4471505;32;32509;-84
2022/02/28 06:50:29;;;;;;;6.18;1.67;;;;;;;4.52;43.18;100984.31;4459680;32;32024;-84
2022/02/28 06:52:57;;;;;;;4.65;2.40;;;;;;;4.92;42.41;100978.16;4446672;32;33077;-84
2022/02/28 06:55:26;;;;;;;3.50;2.08;;;;;;;4.53;43.45;100979.94;4459864;32;34552;-84
2022/02/28 06:57:53;;;;;;;2.40;1.23;;;;;;;5.01;42.64;100979.00;4454603;32;33661;-85
2022/02/28 07:00:20;;;;;;;6.10;1.77;;;;;;;4.98;41.90;100976.37;4441551;32;33231;-84
2022/02/28 07:02:49;;;;;;;4.95;1.65;;;;;;;5.01;41.83;100972.91;4452084;32;32920;-84
2022/02/28 07:05:17;;;;;;;7.07;2.03;;;;;;;5.16;41.88;100978.09;4456996;32;32791;-84
2022/02/28 07:07:45;;;;;;;8.25;2.62;;;;;;;5.59;40.58;100978.81;4457158;32;33863;-84
2022/02/28 07:10:13;;;;;;;5.40;2.25;;;;;;;5.60;40.85;100974.44;4457387;32;33677;-85
2022/02/28 07:17:01;;;;;;;6.57;1.95;;;;;;;5.62;39.34;100964.84;4471334;32;34735;-84
2022/02/28 07:19:28;;;;;;;4.53;1.80;;;;;;;5.26;39.12;100979.81;4456892;32;34396;-84
2022/02/28 07:21:56;;;;;;;1.95;1.30;;;;;;;5.25;38.27;100975.44;4456956;32;33625;-85
2022/02/28 07:24:23;;;;;;;10.57;1.20;;;;;;;4.92;38.26;100978.16;4444042;32;33180;-84
2022/02/28 07:26:53;;;;;;;2.85;1.90;;;;;;;4.54;38.83;100989.53;4444659;32;33246;-84
2022/02/28 07:29:20;;;;;;;3.75;1.25;;;;;;;4.54;39.04;100987.78;4456719;32;32745;-84
2022/02/28 07:31:48;;;;;;;2.60;1.40;;;;;;;4.81;38.93;100997.38;4457033;32;33078;-85
2022/02/28 07:34:15;;;;;;;3.10;1.20;;;;;;;4.37;39.58;100995.63;4456774;32;34553;-84
2022/02/28 07:36:43;;;;;;;1.60;0.88;;;;;;;4.56;38.99;100991.28;4444122;32;33289;-84
2022/02/28 07:39:11;;;;;;;7.28;1.50;;;;;;;4.83;38.97;101000.84;4469837;32;34460;-84
2022/02/28 07:41:39;;;;;;;3.20;1.87;;;;;;;5.04;39.35;100999.09;4469853;32;33370;-84
2022/02/28 07:44:07;;;;;;;2.55;0.93;;;;;;;4.87;39.61;100994.72;4444000;32;32813;-84
2022/02/28 07:46:35;;;;;;;2.58;1.02;;;;;;;5.09;37.70;100998.19;4456818;32;32602;-84
2022/02/28 07:49:02;;;;;;;4.32;0.93;;;;;;;5.00;38.39;100982.50;4444305;32;32707;-85
2022/02/28 07:51:30;;;;;;;3.53;1.52;;;;;;;4.90;38.17;100986.00;4456785;32;33282;-84
2022/02/28 07:53:58;;;;;;;2.10;1.10;;;;;;;5.20;37.15;100989.44;4444063;32;32591;-84
2022/02/28 07:56:26;;;;;;;4.93;1.00;;;;;;;5.30;36.79;100981.53;4442257;32;32906;-83
2022/02/28 07:58:53;;;;;;;2.83;0.95;;;;;;;5.20;37.02;100979.81;4453749;32;33726;-82
2022/02/28 08:01:21;;;;;;;4.28;0.95;;;;;;;5.04;36.96;100992.09;4458751;32;33751;-82
2022/02/28 08:03:49;;;;;;;4.68;1.40;;;;;;;5.06;37.48;100981.63;4451648;32;33996;-83
2022/02/28 08:06:16;;;;;;;2.72;1.20;;;;;;;5.25;36.73;100979.81;4441350;32;32911;-82
2022/02/28 08:08:44;;;;;;;1.60;1.23;;;;;;;5.20;37.43;100985.06;4453747;32;34672;-84
2022/02/28 08:11:12;;;;;;;2.30;0.77;;;;;;;5.17;37.49;100990.28;4441179;32;33402;-84
2022/02/28 08:13:39;;;;;;;4.57;1.30;;;;;;;5.02;36.89;100977.25;4441036;32;34111;-84
2022/02/28 08:16:07;;;;;;;4.03;1.27;;;;;;;4.85;37.52;100983.41;4440958;32;32994;-84
2022/02/28 08:18:35;;;;;;;2.10;1.17;;;;;;;5.05;37.11;100985.13;4428677;32;32956;-84
2022/02/28 08:21:02;;;;;;;3.25;1.55;;;;;;;5.06;37.38;100992.09;4440897;32;32626;-84
2022/02/28 08:23:30;;;;;;;2.28;1.10;;;;;;;5.02;36.88;100990.34;4440998;32;34525;-84
2022/02/28 08:25:58;;;;;;;1.45;0.85;;;;;;;4.67;37.62;100986.03;4440821;32;34699;-84
2022/02/28 08:28:25;;;;;;;2.67;1.08;;;;;;;4.88;37.63;100993.84;4441144;32;33113;-85
2022/02/28 08:30:53;;;;;;;4.30;1.45;;;;;;;4.94;37.15;100989.47;4466748;32;33522;-84
2022/02/28 08:33:20;;;;;;;4.43;1.42;;;;;;;5.02;37.15;100996.44;4440911;32;33052;-84
2022/02/28 08:35:48;;;;;;;2.22;0.88;;;;;;;4.93;37.29;101000.81;4428322;32;33054;-84
2022/02/28 08:38:17;;;;;;;5.15;0.90;;;;;;;4.81;37.43;100993.88;4453569;32;33127;-84
2022/02/28 08:40:46;;;;;;;2.50;1.08;;;;;;;4.83;37.01;101006.06;4441204;32;33343;-85
2022/02/28 08:43:13;;;;;;;3.78;1.15;;;;;;;4.73;37.76;100999.09;4440898;32;32582;-83
2022/02/28 08:45:41;;;;;;;4.72;2.25;;;;;;;4.73;37.03;100993.00;4440860;32;33452;-84
2022/02/28 08:48:08;;;;;;;1.65;1.10;;;;;;;4.65;37.58;101000.84;4442863;32;32687;-84
2022/02/28 08:50:36;;;;;;;2.00;0.90;;;;;;;5.03;36.37;100997.31;4451552;32;32340;-83
2022/02/28 08:53:04;;;;;;;2.25;0.90;;;;;;;5.16;37.57;100999.03;4441017;32;33114;-84
2022/02/28 08:55:32;;;;;;;2.70;1.23;;;;;;;5.06;37.32;101002.56;4440912;32;33920;-84
2022/02/28 08:57:59;;;;;;;1.25;0.70;;;;;;;5.54;37.44;101005.91;4447914;32;34072;-85
2022/02/28 09:00:28;;;;;;;5.22;1.37;;;;;;;5.43;36.45;101005.09;4459036;32;32137;-82
2022/02/28 09:02:56;;;;;;;2.87;1.52;;;;;;;5.08;38.09;101001.69;4474283;32;34684;-83
2022/02/28 09:05:24;;;;;;;4.22;1.23;;;;;;;5.59;37.34;101010.25;4463797;32;32914;-82
2022/02/28 09:07:51;;;;;;;3.22;1.45;;;;;;;5.81;37.04;101011.03;4472510;32;34134;-82
2022/02/28 09:10:21;;;;;;;3.53;1.12;;;;;;;6.08;36.75;101009.19;4469490;32;34214;-83
2022/02/28 09:12:48;;;;;;;3.28;1.67;;;;;;;5.79;37.04;101011.91;4446668;32;33247;-82
2022/02/28 09:15:16;;;;;;;3.35;1.30;;;;;;;5.63;36.77;101005.88;4470384;32;33645;-82
2022/02/28 09:17:44;;;;;;;2.58;1.20;;;;;;;6.20;36.54;100998.59;4468040;32;34091;-83
2022/02/28 09:20:12;;;;;;;2.53;1.20;;;;;;;6.53;36.18;101002.72;4469154;32;33198;-82
2022/02/28 09:22:40;;;;;;;3.62;1.73;;;;;;;6.43;36.48;101001.06;4470139;32;32687;-82
2022/02/28 09:25:09;;;;;;;6.20;1.48;;;;;;;6.18;36.64;101005.63;4457606;32;33994;-82
2022/02/28 09:27:38;;;;;;;5.30;1.60;;;;;;;5.97;37.44;101003.97;4470867;32;33807;-82
2022/02/28 09:30:18;;;;;;;6.37;1.63;;;;;;;5.89;37.49;101014.50;4459999;32;31838;-82
2022/02/28 09:32:48;;;;;;;1.70;1.20;;;;;;;5.05;40.08;101027.88;4472333;32;33770;-82
2022/02/28 09:35:15;;;;;;;1.62;0.77;;;;;;;5.27;40.31;101018.22;4456334;32;34774;-82
2022/02/28 09:37:44;;;;;;;4.10;1.33;;;;;;;5.79;39.31;101020.66;4462422;32;33122;-82
2022/02/28 09:40:12;;;;;;;1.45;0.88;;;;;;;6.09;39.08;101017.03;4469534;32;33309;-82
2022/02/28 09:42:43;;;;;;;6.10;1.15;;;;;;;6.29;38.89;101027.37;4460756;32;33057;-84
2022/02/28 09:45:19;;;;;;;4.30;1.50;;;;;;;5.58;39.88;101033.84;4468967;32;35722;-82
2022/02/28 09:47:51;;;;;;;2.62;1.08;;;;;;;5.78;40.40;101031.13;4457854;32;32842;-82
2022/02/28 09:50:20;;;;;;;2.12;1.12;;;;;;;5.31;41.00;101030.41;4461772;32;33284;-83
2022/02/28 09:52:50;;;;;;;2.30;1.30;;;;;;;5.97;39.71;101034.56;4455146;32;32074;-83
2022/02/28 09:55:21;;;;;;;2.90;1.42;;;;;;;5.39;40.67;101039.12;4471412;32;34124;-82
2022/02/28 09:57:51;;;;;;;2.47;1.73;;;;;;;5.33;41.33;101023.44;4448472;32;33393;-83
2022/02/28 10:00:22;;;;;;;2.30;1.10;;;;;;;5.43;41.65;101039.12;4448998;32;33238;-82
2022/02/28 10:02:55;;;;;;;3.28;0.82;;;;;;;5.11;42.42;101037.44;4452887;32;33536;-82
2022/02/28 10:05:26;;;;;;;;;;;;;;;5.06;42.66;101054.91;4442187;32;33662;-81
2022/02/28 10:07:55;;;;;;;3.95;1.20;;;;;;;4.84;43.73;101041.84;4439482;32;32885;-82
2022/02/28 10:10:24;;;;;;;2.10;1.25;;;;;;;4.87;44.76;101049.69;4460287;32;33105;-82
2022/02/28 10:12:53;;;;;;;1.60;0.93;;;;;;;4.61;47.17;101051.44;4442761;32;33874;-82
2022/02/28 10:15:23;;;;;;;3.72;1.27;;;;;;;5.26;45.50;101047.03;4441591;32;33740;-82
2022/02/28 10:18:01;;;;;;;5.10;1.30;;;;;;;5.21;45.83;101044.41;4459630;32;34201;-82
2022/02/28 10:20:38;;;;;;;3.30;1.10;;;;;;;4.94;45.29;101054.91;4458363;32;32396;-82
2022/02/28 10:23:09;;;;;;;1.67;0.90;;;;;;;4.70;45.64;101046.22;4459463;32;32789;-83
2022/02/28 10:25:38;;;;;;;2.25;1.05;;;;;;;5.59;44.84;101038.19;4459677;32;33503;-82
2022/02/28 10:28:19;;;;;;;3.75;1.30;;;;;;;5.87;43.65;101037.19;4455550;32;32684;-83
2022/02/28 10:31:02;;;;;;;5.40;1.10;;;;;;;6.15;43.75;101031.84;4455473;32;31910;-82
2022/02/28 10:33:38;;;;;;;2.37;1.10;;;;;;;6.28;43.49;101040.53;4462468;32;34460;-82
2022/02/28 10:36:19;;;;;;;3.33;1.40;;;;;;;5.53;44.22;101040.84;4449764;32;34566;-82
2022/02/28 10:38:53;;;;;;;2.45;1.37;;;;;;;5.93;44.27;101031.09;4455142;32;34121;-82
2022/02/28 10:41:26;;;;;;;3.70;0.95;;;;;;;6.15;43.70;101043.22;4460287;32;34453;-82
2022/02/28 10:43:56;;;;;;;2.03;0.90;;;;;;;5.87;44.48;101042.44;4451984;32;33096;-82
2022/02/28 10:46:29;;;;;;;2.70;0.98;;;;;;;5.55;45.81;101033.84;4445304;32;34746;-82
2022/02/28 10:49:01;;;;;;;2.12;1.40;;;;;;;5.50;46.27;101046.09;4447475;32;33101;-82
2022/02/28 10:51:32;;;;;;;2.97;1.42;;;;;;;5.44;46.68;101048.72;4462751;32;32936;-81
2022/02/28 10:54:07;;;;;;;2.28;1.10;;;;;;;5.40;47.60;101046.09;4455235;32;32389;-81
2022/02/28 10:57:12;;;;;;;1.48;0.90;;;;;;;5.57;46.74;101053.94;4463420;32;33668;-82
2022/02/28 10:59:56;;;;;;;2.45;1.30;;;;;;;5.55;47.22;101054.78;4471342;32;33759;-82
2022/02/28 11:02:43;;;;;;;3.10;1.20;;;;;;;5.29;47.67;101058.38;4459900;32;33743;-82
2022/02/28 11:05:13;;;;;;;3.53;0.95;;;;;;;5.12;48.33;101052.28;4470873;32;34427;-82
2022/02/28 11:07:52;;;;;;;1.92;0.90;;;;;;;5.21;48.04;101046.16;4463896;32;32869;-82
2022/02/28 11:10:23;;;;;;;2.83;1.20;;;;;;;5.26;48.57;101058.38;4448629;32;34890;-82
2022/02/28 11:12:52;;;;;;;2.28;1.48;;;;;;;4.88;49.50;101066.25;4469334;32;32868;-82
2022/02/28 11:15:21;;;;;;;3.87;1.40;;;;;;;4.93;49.51;101068.88;4457241;32;34647;-82
2022/02/28 11:17:51;;;;;;;2.00;0.82;;;;;;;4.89;49.83;101057.56;4458637;32;34474;-82
2022/02/28 11:20:20;;;;;;;1.90;1.25;;;;;;;5.18;49.83;101060.16;4470751;32;33851;-82
2022/02/28 11:22:49;;;;;;;1.20;1.08;;;;;;;5.62;50.08;101061.78;4460257;32;32722;-83
2022/02/28 11:25:19;;;;;;;1.17;0.77;;;;;;;5.29;50.24;101063.59;4457831;32;34610;-82
2022/02/28 11:27:49;;;;;;;1.48;0.98;;;;;;;5.07;50.89;101067.13;4469674;32;33206;-82
2022/02/28 11:30:21;;;;;;;3.35;1.73;;;;;;;5.20;51.21;101073.22;4469029;32;34707;-82
2022/02/28 11:33:03;;;;;;;3.60;1.12;;;;;;;5.20;51.12;101066.25;4470744;32;33204;-82
2022/02/28 11:35:34;;;;;;;0.95;0.85;;;;;;;5.06;51.91;101068.00;4465920;32;32753;-82
2022/02/28 11:38:12;;;;;;;3.35;1.60;;;;;;;5.16;51.23;101069.72;4472894;32;32618;-82
2022/02/28 11:40:48;;;;;;;3.03;1.45;;;;;;;4.80;53.21;101079.38;4456335;32;33423;-81
2022/02/28 11:43:22;;;;;;;2.65;1.12;;;;;;;5.11;51.42;101087.19;4458221;32;33214;-82
2022/02/28 11:45:57;;;;;;;3.78;1.45;;;;;;;4.47;55.34;101081.94;4470314;32;33250;-81
2022/02/28 11:48:28;;;;;;;6.97;1.87;;;;;;;4.55;56.64;101090.66;4471415;32;34439;-81
2022/02/28 11:51:00;;;;;;;4.10;1.50;;;;;;;4.04;61.27;101105.38;4459693;32;33638;-82
2022/02/28 11:53:46;;;;;;;2.28;1.33;;;;;;;3.99;62.58;101101.84;4469373;32;33151;-81
2022/02/28 11:56:16;;;;;;;3.42;1.85;;;;;;;4.17;62.67;101106.25;4477172;32;33430;-81